sensor_id;sensor_type;location;lat;lon;timestamp;pressure;altitude;pressure_sealevel;temperature;humidity
16793;BME280;8513;42.662;23.350;2024-02-26T00:01:52;94458.47;;;10.16;66.30
16793;BME280;8513;42.662;23.350;2024-02-26T00:04:17;94457.63;;;10.15;66.21
16793;BME280;8513;42.662;23.350;2024-02-26T00:06:43;94461.56;;;10.20;66.15
16793;BME280;8513;42.662;23.350;2024-02-26T00:09:09;94455.19;;;10.22;66.04
16793;BME280;8513;42.662;23.350;2024-02-26T00:11:37;94448.91;;;10.23;65.93
16793;BME280;8513;42.662;23.350;2024-02-26T00:14:03;94445.47;;;10.23;66.08
16793;BME280;8513;42.662;23.350;2024-02-26T00:16:28;94446.13;;;10.16;66.13
16793;BME280;8513;42.662;23.350;2024-02-26T00:18:54;94460.25;;;10.15;66.40
16793;BME280;8513;42.662;23.350;2024-02-26T00:21:19;94452.19;;;10.09;66.83
16793;BME280;8513;42.662;23.350;2024-02-26T00:23:44;94450.72;;;10.23;66.63
16793;BME280;8513;42.662;23.350;2024-02-26T00:26:10;94447.09;;;10.15;66.50
16793;BME280;8513;42.662;23.350;2024-02-26T00:28:36;94443.16;;;10.03;66.58
16793;BME280;8513;42.662;23.350;2024-02-26T00:31:02;94441.84;;;10.15;66.32
16793;BME280;8513;42.662;23.350;2024-02-26T00:33:28;94446.13;;;10.16;66.49
16793;BME280;8513;42.662;23.350;2024-02-26T00:35:53;94432.81;;;10.02;67.02
16793;BME280;8513;42.662;23.350;2024-02-26T00:38:18;94429.03;;;10.04;66.96
16793;BME280;8513;42.662;23.350;2024-02-26T00:40:44;94432.81;;;10.10;66.97
16793;BME280;8513;42.662;23.350;2024-02-26T00:43:09;94428.72;;;10.15;66.97
16793;BME280;8513;42.662;23.350;2024-02-26T00:45:35;94430.03;;;10.20;67.00
16793;BME280;8513;42.662;23.350;2024-02-26T00:48:00;94420.19;;;10.13;67.28
16793;BME280;8513;42.662;23.350;2024-02-26T00:50:32;94413.13;;;10.22;66.85
16793;BME280;8513;42.662;23.350;2024-02-26T00:52:58;94412.66;;;10.19;67.09
16793;BME280;8513;42.662;23.350;2024-02-26T00:55:24;94411.00;;;10.18;66.99
16793;BME280;8513;42.662;23.350;2024-02-26T00:57:49;94412.50;;;10.28;66.97
16793;BME280;8513;42.662;23.350;2024-02-26T01:00:15;94406.59;;;10.34;66.72
16793;BME280;8513;42.662;23.350;2024-02-26T01:02:41;94396.41;;;10.31;66.23
16793;BME280;8513;42.662;23.350;2024-02-26T01:05:12;94404.47;;;10.30;66.42
16793;BME280;8513;42.662;23.350;2024-02-26T01:07:37;94405.44;;;10.29;66.44
16793;BME280;8513;42.662;23.350;2024-02-26T01:10:05;94400.84;;;10.31;66.34
16793;BME280;8513;42.662;23.350;2024-02-26T01:12:33;94406.09;;;10.39;66.03
16793;BME280;8513;42.662;23.350;2024-02-26T01:15:00;94404.78;;;10.35;66.26
16793;BME280;8513;42.662;23.350;2024-02-26T01:17:25;94403.31;;;10.32;66.44
16793;BME280;8513;42.662;23.350;2024-02-26T01:19:50;94404.91;;;10.09;66.78
16793;BME280;8513;42.662;23.350;2024-02-26T01:22:16;94409.69;;;10.22;66.73
16793;BME280;8513;42.662;23.350;2024-02-26T01:24:41;94405.41;;;10.21;66.89
16793;BME280;8513;42.662;23.350;2024-02-26T01:27:07;94398.19;;;10.23;66.46
16793;BME280;8513;42.662;23.350;2024-02-26T01:29:34;94394.41;;;10.17;66.91
16793;BME280;8513;42.662;23.350;2024-02-26T01:31:59;94402.63;;;10.22;66.86
16793;BME280;8513;42.662;23.350;2024-02-26T01:34:25;94404.09;;;10.00;67.40
16793;BME280;8513;42.662;23.350;2024-02-26T01:36:50;94403.78;;;10.03;67.55
16793;BME280;8513;42.662;23.350;2024-02-26T01:39:15;94389.63;;;10.12;67.17
16793;BME280;8513;42.662;23.350;2024-02-26T01:41:41;94393.59;;;10.16;67.33
16793;BME280;8513;42.662;23.350;2024-02-26T01:44:06;94392.94;;;10.06;67.78
16793;BME280;8513;42.662;23.350;2024-02-26T01:46:34;94402.44;;;10.15;67.47
16793;BME280;8513;42.662;23.350;2024-02-26T01:49:02;94390.78;;;10.26;67.24
16793;BME280;8513;42.662;23.350;2024-02-26T01:51:29;94390.31;;;10.23;67.35
16793;BME280;8513;42.662;23.350;2024-02-26T01:53:55;94379.34;;;10.27;67.53
16793;BME280;8513;42.662;23.350;2024-02-26T01:56:21;94379.81;;;10.31;67.40
16793;BME280;8513;42.662;23.350;2024-02-26T01:58:47;94389.19;;;10.33;67.18
16793;BME280;8513;42.662;23.350;2024-02-26T02:01:15;94386.88;;;10.30;67.23
16793;BME280;8513;42.662;23.350;2024-02-26T02:03:42;94378.66;;;10.25;67.35
16793;BME280;8513;42.662;23.350;2024-02-26T02:06:08;94385.06;;;10.31;67.18
16793;BME280;8513;42.662;23.350;2024-02-26T02:08:34;94384.59;;;10.27;67.42
16793;BME280;8513;42.662;23.350;2024-02-26T02:11:00;94383.22;;;10.23;67.31
16793;BME280;8513;42.662;23.350;2024-02-26T02:13:26;94387.00;;;10.12;67.38
16793;BME280;8513;42.662;23.350;2024-02-26T02:15:52;94372.06;;;10.05;67.38
16793;BME280;8513;42.662;23.350;2024-02-26T02:18:18;94375.53;;;10.13;67.15
16793;BME280;8513;42.662;23.350;2024-02-26T02:20:44;94381.28;;;10.09;67.41
16793;BME280;8513;42.662;23.350;2024-02-26T02:23:09;94390.47;;;10.13;67.25
16793;BME280;8513;42.662;23.350;2024-02-26T02:25:35;94380.94;;;10.12;66.92
16793;BME280;8513;42.662;23.350;2024-02-26T02:28:00;94387.69;;;10.06;67.17
16793;BME280;8513;42.662;23.350;2024-02-26T02:30:29;94379.94;;;10.05;67.78
16793;BME280;8513;42.662;23.350;2024-02-26T02:32:55;94380.13;;;10.11;67.41
16793;BME280;8513;42.662;23.350;2024-02-26T02:35:21;94378.00;;;10.15;67.42
16793;BME280;8513;42.662;23.350;2024-02-26T02:37:47;94384.22;;;10.14;67.45
16793;BME280;8513;42.662;23.350;2024-02-26T02:40:12;94387.34;;;10.26;67.29
16793;BME280;8513;42.662;23.350;2024-02-26T02:42:37;94376.03;;;10.09;67.74
16793;BME280;8513;42.662;23.350;2024-02-26T02:45:03;94377.16;;;10.14;67.77
16793;BME280;8513;42.662;23.350;2024-02-26T02:47:29;94377.50;;;10.03;68.02
16793;BME280;8513;42.662;23.350;2024-02-26T02:49:54;94380.13;;;10.11;67.61
16793;BME280;8513;42.662;23.350;2024-02-26T02:52:19;94379.31;;;10.11;67.86
16793;BME280;8513;42.662;23.350;2024-02-26T02:54:45;94389.00;;;10.19;67.82
16793;BME280;8513;42.662;23.350;2024-02-26T02:57:12;94395.91;;;10.28;67.19
16793;BME280;8513;42.662;23.350;2024-02-26T02:59:38;94392.44;;;10.19;67.37
16793;BME280;8513;42.662;23.350;2024-02-26T03:02:03;94393.09;;;10.05;67.54
16793;BME280;8513;42.662;23.350;2024-02-26T03:04:29;94388.81;;;10.04;67.43
16793;BME280;8513;42.662;23.350;2024-02-26T03:06:54;94394.75;;;10.06;67.65
16793;BME280;8513;42.662;23.350;2024-02-26T03:09:20;94404.09;;;10.16;67.04
16793;BME280;8513;42.662;23.350;2024-02-26T03:11:45;94407.53;;;10.17;67.35
16793;BME280;8513;42.662;23.350;2024-02-26T03:14:11;94402.44;;;10.07;67.83
16793;BME280;8513;42.662;23.350;2024-02-26T03:16:36;94386.53;;;10.09;66.92
16793;BME280;8513;42.662;23.350;2024-02-26T03:19:02;94391.78;;;10.09;67.00
16793;BME280;8513;42.662;23.350;2024-02-26T03:21:28;94395.72;;;10.13;66.98
16793;BME280;8513;42.662;23.350;2024-02-26T03:23:53;94386.88;;;10.06;67.95
16793;BME280;8513;42.662;23.350;2024-02-26T03:26:19;94385.38;;;10.11;67.64
16793;BME280;8513;42.662;23.350;2024-02-26T03:28:44;94375.69;;;10.12;68.07
16793;BME280;8513;42.662;23.350;2024-02-26T03:31:10;94377.66;;;10.10;67.93
16793;BME280;8513;42.662;23.350;2024-02-26T03:33:36;94372.72;;;10.15;67.86
16793;BME280;8513;42.662;23.350;2024-02-26T03:36:01;94370.28;;;10.05;68.28
16793;BME280;8513;42.662;23.350;2024-02-26T03:38:28;94373.53;;;10.15;68.10
16793;BME280;8513;42.662;23.350;2024-02-26T03:40:54;94374.22;;;10.09;68.04
16793;BME280;8513;42.662;23.350;2024-02-26T03:43:19;94371.91;;;10.06;68.01
16793;BME280;8513;42.662;23.350;2024-02-26T03:45:44;94364.69;;;10.08;67.91
16793;BME280;8513;42.662;23.350;2024-02-26T03:48:10;94367.00;;;10.03;67.99
16793;BME280;8513;42.662;23.350;2024-02-26T03:50:35;94366.50;;;10.00;68.38
16793;BME280;8513;42.662;23.350;2024-02-26T03:53:01;94371.91;;;9.98;68.79
16793;BME280;8513;42.662;23.350;2024-02-26T03:55:26;94367.00;;;10.03;68.64
16793;BME280;8513;42.662;23.350;2024-02-26T03:57:52;94374.22;;;10.01;68.40
16793;BME280;8513;42.662;23.350;2024-02-26T04:00:17;94368.28;;;10.07;68.29
16793;BME280;8513;42.662;23.350;2024-02-26T04:02:43;94374.88;;;10.03;68.28
16793;BME280;8513;42.662;23.350;2024-02-26T04:05:11;94370.44;;;10.04;68.29
16793;BME280;8513;42.662;23.350;2024-02-26T04:07:37;94356.97;;;9.99;68.68
16793;BME280;8513;42.662;23.350;2024-02-26T04:10:02;94358.94;;;9.97;68.62
16793;BME280;8513;42.662;23.350;2024-02-26T04:12:31;94366.00;;;9.96;68.36
16793;BME280;8513;42.662;23.350;2024-02-26T04:14:56;94359.28;;;9.93;68.67
16793;BME280;8513;42.662;23.350;2024-02-26T04:17:21;94352.88;;;9.96;68.40
16793;BME280;8513;42.662;23.350;2024-02-26T04:19:47;94359.28;;;9.93;68.84
16793;BME280;8513;42.662;23.350;2024-02-26T04:22:12;94353.34;;;9.91;68.99
16793;BME280;8513;42.662;23.350;2024-02-26T04:24:38;94352.38;;;9.84;69.03
16793;BME280;8513;42.662;23.350;2024-02-26T04:27:03;94353.88;;;9.95;68.85
16793;BME280;8513;42.662;23.350;2024-02-26T04:29:29;94339.59;;;9.89;68.74
16793;BME280;8513;42.662;23.350;2024-02-26T04:31:54;94341.69;;;9.94;68.66
16793;BME280;8513;42.662;23.350;2024-02-26T04:34:19;94349.09;;;9.99;68.74
16793;BME280;8513;42.662;23.350;2024-02-26T04:36:45;94342.69;;;10.01;68.70
16793;BME280;8513;42.662;23.350;2024-02-26T04:39:10;94350.25;;;10.04;68.41
16793;BME280;8513;42.662;23.350;2024-02-26T04:41:36;94349.56;;;10.02;68.51
16793;BME280;8513;42.662;23.350;2024-02-26T04:44:01;94351.72;;;9.99;68.71
16793;BME280;8513;42.662;23.350;2024-02-26T04:46:27;94357.47;;;10.02;68.76
16793;BME280;8513;42.662;23.350;2024-02-26T04:48:53;94347.63;;;9.88;68.97
16793;BME280;8513;42.662;23.350;2024-02-26T04:51:19;94358.78;;;9.82;69.01
16793;BME280;8513;42.662;23.350;2024-02-26T04:53:44;94361.56;;;9.80;69.51
16793;BME280;8513;42.662;23.350;2024-02-26T04:56:10;94366.34;;;9.93;69.05
16793;BME280;8513;42.662;23.350;2024-02-26T04:58:35;94350.91;;;9.90;69.12
16793;BME280;8513;42.662;23.350;2024-02-26T05:01:01;94355.84;;;9.93;68.84
16793;BME280;8513;42.662;23.350;2024-02-26T05:03:26;94357.47;;;9.86;68.99
16793;BME280;8513;42.662;23.350;2024-02-26T05:05:51;94368.78;;;9.78;68.92
16793;BME280;8513;42.662;23.350;2024-02-26T05:08:17;94371.91;;;9.90;68.45
16793;BME280;8513;42.662;23.350;2024-02-26T05:10:45;94375.03;;;9.85;67.42
16793;BME280;8513;42.662;23.350;2024-02-26T05:13:10;94373.41;;;9.84;67.01
16793;BME280;8513;42.662;23.350;2024-02-26T05:15:36;94376.84;;;9.93;66.31
16793;BME280;8513;42.662;23.350;2024-02-26T05:18:02;94384.88;;;9.83;66.10
16793;BME280;8513;42.662;23.350;2024-02-26T05:20:28;94384.56;;;9.86;66.03
16793;BME280;8513;42.662;23.350;2024-02-26T05:22:54;94397.19;;;9.99;65.77
16793;BME280;8513;42.662;23.350;2024-02-26T05:25:19;94400.63;;;9.91;65.88
16793;BME280;8513;42.662;23.350;2024-02-26T05:27:45;94397.19;;;9.99;65.80
16793;BME280;8513;42.662;23.350;2024-02-26T05:30:11;94399.19;;;9.97;65.96
16793;BME280;8513;42.662;23.350;2024-02-26T05:32:36;94400.81;;;9.98;66.04
16793;BME280;8513;42.662;23.350;2024-02-26T05:35:02;94405.06;;;9.99;66.21
16793;BME280;8513;42.662;23.350;2024-02-26T05:37:29;94408.69;;;10.06;66.24
16793;BME280;8513;42.662;23.350;2024-02-26T05:39:54;94409.97;;;9.78;66.68
16793;BME280;8513;42.662;23.350;2024-02-26T05:42:20;94421.09;;;9.55;68.01
16793;BME280;8513;42.662;23.350;2024-02-26T05:44:45;94420.63;;;9.68;67.90
16793;BME280;8513;42.662;23.350;2024-02-26T05:47:10;94412.44;;;9.79;67.57
16793;BME280;8513;42.662;23.350;2024-02-26T05:49:36;94417.22;;;9.84;66.90
16793;BME280;8513;42.662;23.350;2024-02-26T05:52:01;94422.47;;;9.92;66.72
16793;BME280;8513;42.662;23.350;2024-02-26T05:54:27;94424.75;;;9.87;66.85
16793;BME280;8513;42.662;23.350;2024-02-26T05:56:52;94416.22;;;9.85;67.07
16793;BME280;8513;42.662;23.350;2024-02-26T05:59:18;94415.72;;;9.81;67.39
16793;BME280;8513;42.662;23.350;2024-02-26T06:01:43;94415.91;;;9.88;67.21
16793;BME280;8513;42.662;23.350;2024-02-26T06:04:09;94422.97;;;9.87;67.42
16793;BME280;8513;42.662;23.350;2024-02-26T06:06:34;94416.06;;;9.86;67.31
16793;BME280;8513;42.662;23.350;2024-02-26T06:08:59;94433.81;;;9.92;67.15
16793;BME280;8513;42.662;23.350;2024-02-26T06:11:25;94435.44;;;10.02;67.04
16793;BME280;8513;42.662;23.350;2024-02-26T06:13:50;94443.00;;;10.13;66.80
16793;BME280;8513;42.662;23.350;2024-02-26T06:16:16;94434.75;;;9.83;67.99
16793;BME280;8513;42.662;23.350;2024-02-26T06:18:41;94440.69;;;9.93;67.62
16793;BME280;8513;42.662;23.350;2024-02-26T06:21:10;94447.41;;;9.96;67.26
16793;BME280;8513;42.662;23.350;2024-02-26T06:23:36;94439.06;;;10.09;66.76
16793;BME280;8513;42.662;23.350;2024-02-26T06:26:02;94434.47;;;10.03;66.72
16793;BME280;8513;42.662;23.350;2024-02-26T06:28:27;94430.72;;;10.05;66.20
16793;BME280;8513;42.662;23.350;2024-02-26T06:30:55;94441.53;;;10.10;65.97
16793;BME280;8513;42.662;23.350;2024-02-26T06:33:21;94433.50;;;10.12;65.94
16793;BME280;8513;42.662;23.350;2024-02-26T06:35:47;94437.59;;;10.14;65.79
16793;BME280;8513;42.662;23.350;2024-02-26T06:38:12;94432.34;;;10.14;65.64
16793;BME280;8513;42.662;23.350;2024-02-26T06:40:39;94434.97;;;10.06;66.06
16793;BME280;8513;42.662;23.350;2024-02-26T06:43:04;94448.44;;;10.11;66.36
16793;BME280;8513;42.662;23.350;2024-02-26T06:45:30;94435.97;;;10.13;66.24
16793;BME280;8513;42.662;23.350;2024-02-26T06:47:56;94433.34;;;10.13;66.25
16793;BME280;8513;42.662;23.350;2024-02-26T06:50:21;94429.38;;;10.09;66.34
16793;BME280;8513;42.662;23.350;2024-02-26T06:52:47;94434.81;;;10.16;66.15
16793;BME280;8513;42.662;23.350;2024-02-26T06:55:13;94429.22;;;10.19;66.37
16793;BME280;8513;42.662;23.350;2024-02-26T06:57:38;94436.13;;;10.20;66.29
16793;BME280;8513;42.662;23.350;2024-02-26T07:00:04;94436.00;;;10.30;66.08
16793;BME280;8513;42.662;23.350;2024-02-26T07:02:31;94437.44;;;10.24;66.41
16793;BME280;8513;42.662;23.350;2024-02-26T07:04:56;94431.38;;;10.24;66.41
16793;BME280;8513;42.662;23.350;2024-02-26T07:07:23;94436.63;;;10.24;66.10
16793;BME280;8513;42.662;23.350;2024-02-26T07:09:49;94441.22;;;10.22;66.14
16793;BME280;8513;42.662;23.350;2024-02-26T07:12:15;94450.63;;;10.32;65.88
16793;BME280;8513;42.662;23.350;2024-02-26T07:14:41;94445.69;;;10.29;66.04
16793;BME280;8513;42.662;23.350;2024-02-26T07:17:07;94453.41;;;10.31;65.98
16793;BME280;8513;42.662;23.350;2024-02-26T07:19:33;94445.84;;;10.28;66.07
16793;BME280;8513;42.662;23.350;2024-02-26T07:21:59;94444.22;;;10.43;65.89
16793;BME280;8513;42.662;23.350;2024-02-26T07:24:27;94445.84;;;10.28;66.21
16793;BME280;8513;42.662;23.350;2024-02-26T07:26:52;94453.06;;;10.42;65.94
16793;BME280;8513;42.662;23.350;2024-02-26T07:29:19;94441.59;;;10.43;65.97
16793;BME280;8513;42.662;23.350;2024-02-26T07:31:45;94443.53;;;10.57;65.40
16793;BME280;8513;42.662;23.350;2024-02-26T07:34:13;94437.47;;;10.57;65.37
16793;BME280;8513;42.662;23.350;2024-02-26T07:36:39;94453.69;;;10.69;65.21
16793;BME280;8513;42.662;23.350;2024-02-26T07:39:05;94443.53;;;10.66;64.79
16793;BME280;8513;42.662;23.350;2024-02-26T07:41:30;94442.53;;;10.75;64.58
16793;BME280;8513;42.662;23.350;2024-02-26T07:43:56;94454.34;;;10.79;64.26
16793;BME280;8513;42.662;23.350;2024-02-26T07:46:21;94454.69;;;10.84;64.31
16793;BME280;8513;42.662;23.350;2024-02-26T07:48:47;94453.97;;;10.98;64.09
16793;BME280;8513;42.662;23.350;2024-02-26T07:51:13;94452.03;;;10.92;64.14
16793;BME280;8513;42.662;23.350;2024-02-26T07:53:42;94451.00;;;11.10;64.41
16793;BME280;8513;42.662;23.350;2024-02-26T07:56:08;94447.88;;;11.06;64.65
16793;BME280;8513;42.662;23.350;2024-02-26T07:58:34;94446.38;;;11.12;64.50
16793;BME280;8513;42.662;23.350;2024-02-26T08:00:59;94437.84;;;11.18;64.20
16793;BME280;8513;42.662;23.350;2024-02-26T08:03:25;94444.38;;;11.22;64.38
16793;BME280;8513;42.662;23.350;2024-02-26T08:05:51;94421.69;;;11.21;64.32
16793;BME280;8513;42.662;23.350;2024-02-26T08:08:16;94435.00;;;11.27;64.44
16793;BME280;8513;42.662;23.350;2024-02-26T08:10:42;94435.13;;;11.34;64.30
16793;BME280;8513;42.662;23.350;2024-02-26T08:13:07;94425.13;;;11.30;64.27
16793;BME280;8513;42.662;23.350;2024-02-26T08:15:34;94430.84;;;11.41;63.88
16793;BME280;8513;42.662;23.350;2024-02-26T08:18:00;94428.19;;;11.50;63.52
16793;BME280;8513;42.662;23.350;2024-02-26T08:20:28;94426.78;;;11.62;62.57
16793;BME280;8513;42.662;23.350;2024-02-26T08:22:53;94425.91;;;11.69;62.31
16793;BME280;8513;42.662;23.350;2024-02-26T08:25:19;94435.13;;;11.74;61.69
16793;BME280;8513;42.662;23.350;2024-02-26T08:27:45;94435.88;;;11.90;61.05
16793;BME280;8513;42.662;23.350;2024-02-26T08:30:11;94434.16;;;12.06;60.59
16793;BME280;8513;42.662;23.350;2024-02-26T08:32:38;94423.25;;;12.09;59.90
16793;BME280;8513;42.662;23.350;2024-02-26T08:35:04;94434.69;;;12.24;59.46
16793;BME280;8513;42.662;23.350;2024-02-26T08:37:30;94431.91;;;12.18;59.51
16793;BME280;8513;42.662;23.350;2024-02-26T08:39:55;94437.53;;;12.38;58.47
16793;BME280;8513;42.662;23.350;2024-02-26T08:42:21;94426.63;;;12.41;57.56
16793;BME280;8513;42.662;23.350;2024-02-26T08:44:46;94432.81;;;12.48;58.46
16793;BME280;8513;42.662;23.350;2024-02-26T08:47:11;94434.06;;;12.60;57.85
16793;BME280;8513;42.662;23.350;2024-02-26T08:49:42;94429.59;;;12.61;56.76
16793;BME280;8513;42.662;23.350;2024-02-26T08:52:07;94432.00;;;12.70;56.11
16793;BME280;8513;42.662;23.350;2024-02-26T08:54:33;94433.63;;;12.71;56.08
16793;BME280;8513;42.662;23.350;2024-02-26T08:56:58;94437.84;;;12.80;55.74
16793;BME280;8513;42.662;23.350;2024-02-26T08:59:24;94429.28;;;12.93;55.28
16793;BME280;8513;42.662;23.350;2024-02-26T09:01:49;94439.63;;;12.80;55.51
16793;BME280;8513;42.662;23.350;2024-02-26T09:04:14;94424.94;;;12.86;55.43
16793;BME280;8513;42.662;23.350;2024-02-26T09:06:40;94422.19;;;12.94;55.40
16793;BME280;8513;42.662;23.350;2024-02-26T09:09:05;94422.28;;;13.00;55.30
16793;BME280;8513;42.662;23.350;2024-02-26T09:11:31;94429.66;;;13.05;55.27
16793;BME280;8513;42.662;23.350;2024-02-26T09:13:56;94423.56;;;13.05;55.44
16793;BME280;8513;42.662;23.350;2024-02-26T09:16:22;94427.47;;;13.09;55.63
16793;BME280;8513;42.662;23.350;2024-02-26T09:18:47;94428.28;;;13.09;55.41
16793;BME280;8513;42.662;23.350;2024-02-26T09:21:13;94423.38;;;13.06;55.63
16793;BME280;8513;42.662;23.350;2024-02-26T09:23:38;94420.72;;;13.06;56.11
16793;BME280;8513;42.662;23.350;2024-02-26T09:26:05;94410.81;;;13.23;55.96
16793;BME280;8513;42.662;23.350;2024-02-26T09:28:31;94409.00;;;13.38;55.81
16793;BME280;8513;42.662;23.350;2024-02-26T09:31:03;94406.84;;;13.42;54.83
16793;BME280;8513;42.662;23.350;2024-02-26T09:33:29;94408.03;;;13.39;53.72
16793;BME280;8513;42.662;23.350;2024-02-26T09:35:54;94404.00;;;13.43;53.43
16793;BME280;8513;42.662;23.350;2024-02-26T09:38:20;94408.38;;;13.51;53.00
16793;BME280;8513;42.662;23.350;2024-02-26T09:40:45;94412.47;;;13.54;52.53
16793;BME280;8513;42.662;23.350;2024-02-26T09:43:13;94405.06;;;13.64;52.23
16793;BME280;8513;42.662;23.350;2024-02-26T09:45:41;94400.06;;;13.69;52.37
16793;BME280;8513;42.662;23.350;2024-02-26T09:48:08;94411.16;;;13.64;52.68
16793;BME280;8513;42.662;23.350;2024-02-26T09:50:35;94399.25;;;13.68;52.31
16793;BME280;8513;42.662;23.350;2024-02-26T09:53:03;94390.56;;;13.75;52.13
16793;BME280;8513;42.662;23.350;2024-02-26T09:55:30;94398.75;;;13.80;52.15
16793;BME280;8513;42.662;23.350;2024-02-26T09:57:56;94390.19;;;13.78;51.75
16793;BME280;8513;42.662;23.350;2024-02-26T10:00:23;94390.06;;;13.86;50.77
16793;BME280;8513;42.662;23.350;2024-02-26T10:02:51;94387.00;;;13.82;51.44
16793;BME280;8513;42.662;23.350;2024-02-26T10:05:17;94392.59;;;13.94;50.84
16793;BME280;8513;42.662;23.350;2024-02-26T10:07:46;94393.88;;;13.98;51.15
16793;BME280;8513;42.662;23.350;2024-02-26T10:10:13;94396.84;;;13.95;51.26
16793;BME280;8513;42.662;23.350;2024-02-26T10:12:39;94383.41;;;13.90;50.59
16793;BME280;8513;42.662;23.350;2024-02-26T10:15:04;94399.16;;;13.98;50.92
16793;BME280;8513;42.662;23.350;2024-02-26T10:17:30;94379.56;;;13.93;50.51
16793;BME280;8513;42.662;23.350;2024-02-26T10:20:17;94378.34;;;13.95;50.51
16793;BME280;8513;42.662;23.350;2024-02-26T10:22:46;94381.63;;;13.97;50.20
16793;BME280;8513;42.662;23.350;2024-02-26T10:25:12;94370.06;;;13.98;50.43
16793;BME280;8513;42.662;23.350;2024-02-26T10:27:40;94368.25;;;13.99;50.04
16793;BME280;8513;42.662;23.350;2024-02-26T10:30:22;94371.31;;;14.24;49.47
16793;BME280;8513;42.662;23.350;2024-02-26T10:32:48;94366.91;;;14.31;49.34
16793;BME280;8513;42.662;23.350;2024-02-26T10:35:15;94374.47;;;14.12;50.22
16793;BME280;8513;42.662;23.350;2024-02-26T10:37:41;94368.91;;;14.29;49.22
16793;BME280;8513;42.662;23.350;2024-02-26T10:40:16;94352.44;;;14.05;49.33
16793;BME280;8513;42.662;23.350;2024-02-26T10:42:42;94358.53;;;14.06;50.03
16793;BME280;8513;42.662;23.350;2024-02-26T10:45:09;94354.06;;;14.28;48.79
16793;BME280;8513;42.662;23.350;2024-02-26T10:47:40;94348.53;;;14.23;48.82
16793;BME280;8513;42.662;23.350;2024-02-26T10:50:08;94350.38;;;14.22;49.24
16793;BME280;8513;42.662;23.350;2024-02-26T10:52:34;94343.75;;;14.33;48.32
16793;BME280;8513;42.662;23.350;2024-02-26T10:55:02;94351.44;;;14.28;48.83
16793;BME280;8513;42.662;23.350;2024-02-26T10:57:33;94342.53;;;14.36;48.47
16793;BME280;8513;42.662;23.350;2024-02-26T11:00:00;94356.19;;;14.39;48.29
16793;BME280;8513;42.662;23.350;2024-02-26T11:02:26;94347.84;;;14.36;48.56
16793;BME280;8513;42.662;23.350;2024-02-26T11:04:52;94347.50;;;14.45;48.15
16793;BME280;8513;42.662;23.350;2024-02-26T11:07:20;94339.56;;;14.45;47.97
16793;BME280;8513;42.662;23.350;2024-02-26T11:09:46;94350.94;;;14.46;47.92
16793;BME280;8513;42.662;23.350;2024-02-26T11:12:20;94352.72;;;14.60;48.00
16793;BME280;8513;42.662;23.350;2024-02-26T11:14:46;94354.97;;;14.63;48.14
16793;BME280;8513;42.662;23.350;2024-02-26T11:17:13;94343.19;;;14.66;47.69
16793;BME280;8513;42.662;23.350;2024-02-26T11:19:39;94353.13;;;14.57;47.93
16793;BME280;8513;42.662;23.350;2024-02-26T11:22:06;94345.59;;;14.61;47.66
16793;BME280;8513;42.662;23.350;2024-02-26T11:24:32;94350.59;;;14.77;47.31
16793;BME280;8513;42.662;23.350;2024-02-26T11:27:01;94345.69;;;14.74;47.13
16793;BME280;8513;42.662;23.350;2024-02-26T11:29:33;94341.22;;;14.74;46.98
16793;BME280;8513;42.662;23.350;2024-02-26T11:32:00;94341.06;;;14.83;46.67
16793;BME280;8513;42.662;23.350;2024-02-26T11:34:26;94336.63;;;14.90;46.82
16793;BME280;8513;42.662;23.350;2024-02-26T11:36:52;94333.91;;;14.76;47.54
16793;BME280;8513;42.662;23.350;2024-02-26T11:39:18;94334.41;;;14.93;47.02
16793;BME280;8513;42.662;23.350;2024-02-26T11:41:43;94331.19;;;15.05;46.69
16793;BME280;8513;42.662;23.350;2024-02-26T11:44:09;94328.03;;;15.16;46.13
16793;BME280;8513;42.662;23.350;2024-02-26T11:46:42;94332.06;;;15.12;46.03
16793;BME280;8513;42.662;23.350;2024-02-26T11:51:57;94329.00;;;15.15;44.72
16793;BME280;8513;42.662;23.350;2024-02-26T11:54:45;94325.31;;;15.03;44.36
16793;BME280;8513;42.662;23.350;2024-02-26T12:00:14;94331.72;;;15.21;44.38
16793;BME280;8513;42.662;23.350;2024-02-26T12:05:13;94323.78;;;15.28;43.89
16793;BME280;8513;42.662;23.350;2024-02-26T12:07:45;94325.44;;;15.29;43.88
16793;BME280;8513;42.662;23.350;2024-02-26T12:10:26;94324.03;;;15.40;43.59
16793;BME280;8513;42.662;23.350;2024-02-26T12:12:54;94331.31;;;15.31;43.76
16793;BME280;8513;42.662;23.350;2024-02-26T12:15:22;94321.19;;;15.41;43.57
16793;BME280;8513;42.662;23.350;2024-02-26T12:17:48;94326.31;;;15.50;43.23
16793;BME280;8513;42.662;23.350;2024-02-26T12:20:17;94322.25;;;15.54;42.74
16793;BME280;8513;42.662;23.350;2024-02-26T12:22:45;94324.75;;;15.69;42.48
16793;BME280;8513;42.662;23.350;2024-02-26T12:25:13;94331.66;;;15.63;42.85
16793;BME280;8513;42.662;23.350;2024-02-26T12:27:38;94322.56;;;15.85;42.30
16793;BME280;8513;42.662;23.350;2024-02-26T12:30:04;94325.81;;;15.87;42.25
16793;BME280;8513;42.662;23.350;2024-02-26T12:32:31;94326.66;;;16.08;41.67
16793;BME280;8513;42.662;23.350;2024-02-26T12:34:57;94331.56;;;16.11;41.82
16793;BME280;8513;42.662;23.350;2024-02-26T12:37:23;94327.91;;;16.12;41.62
16793;BME280;8513;42.662;23.350;2024-02-26T12:39:49;94323.00;;;16.22;41.51
16793;BME280;8513;42.662;23.350;2024-02-26T12:42:15;94329.94;;;16.43;41.05
16793;BME280;8513;42.662;23.350;2024-02-26T12:44:40;94334.03;;;16.59;40.84
16793;BME280;8513;42.662;23.350;2024-02-26T12:47:06;94334.44;;;16.83;39.98
16793;BME280;8513;42.662;23.350;2024-02-26T12:49:31;94325.16;;;17.18;39.33
16793;BME280;8513;42.662;23.350;2024-02-26T12:51:57;94317.44;;;17.55;38.41
16793;BME280;8513;42.662;23.350;2024-02-26T12:54:33;94326.13;;;18.21;37.32
16793;BME280;8513;42.662;23.350;2024-02-26T12:57:00;94316.13;;;19.10;34.43
16793;BME280;8513;42.662;23.350;2024-02-26T12:59:27;94310.34;;;18.69;35.21
16793;BME280;8513;42.662;23.350;2024-02-26T13:01:53;94315.09;;;18.67;35.28
16793;BME280;8513;42.662;23.350;2024-02-26T13:04:19;94317.38;;;18.89;35.14
16793;BME280;8513;42.662;23.350;2024-02-26T13:06:44;94316.19;;;18.85;35.16